createdAt,value
2023-09-08T00:02:23.164Z,13.19
2023-09-08T00:05:15.767Z,13.16
2023-09-08T00:08:08.914Z,13.13
2023-09-08T00:11:01.915Z,13.09
2023-09-08T00:13:54.730Z,13.06
2023-09-08T00:16:49.727Z,13.04
2023-09-08T00:19:42.955Z,13.04
2023-09-08T00:22:37.413Z,13.05
2023-09-08T00:25:30.270Z,13.05
2023-09-08T00:28:23.024Z,13.02
2023-09-08T00:31:15.651Z,13.00
2023-09-08T00:34:09.529Z,12.98
2023-09-08T00:37:26.056Z,12.99
2023-09-08T00:40:19.087Z,12.98
2023-09-08T00:43:13.548Z,12.97
2023-09-08T00:46:06.526Z,12.96
2023-09-08T00:49:01.885Z,12.96
2023-09-08T00:51:55.156Z,12.96
2023-09-08T00:54:48.939Z,12.94
2023-09-08T00:57:41.764Z,12.93
2023-09-08T01:00:35.049Z,12.92
2023-09-08T01:03:16.555Z,12.89
2023-09-08T01:06:10.283Z,12.87
2023-09-08T01:09:03.857Z,12.85
2023-09-08T01:12:01.912Z,12.83
2023-09-08T01:14:54.693Z,12.82
2023-09-08T01:17:27.649Z,12.80
2023-09-08T01:20:26.077Z,12.77
2023-09-08T01:23:30.669Z,12.74
2023-09-08T01:26:28.139Z,12.72
2023-09-08T01:29:21.852Z,12.70
2023-09-08T01:32:15.903Z,12.68
2023-09-08T01:35:09.932Z,12.64
2023-09-08T01:38:02.620Z,12.61
2023-09-08T01:40:55.302Z,12.58
2023-09-08T01:43:50.207Z,12.56
2023-09-08T01:46:43.053Z,12.54
2023-09-08T01:49:38.139Z,12.58
2023-09-08T01:52:31.105Z,12.60
2023-09-08T01:55:23.729Z,12.61
2023-09-08T01:58:16.535Z,12.61
2023-09-08T02:01:07.401Z,12.61
2023-09-08T02:04:00.247Z,12.58
2023-09-08T02:06:54.301Z,12.55
2023-09-08T02:09:47.360Z,12.52
2023-09-08T02:12:43.656Z,12.47
2023-09-08T02:15:38.907Z,12.44
2023-09-08T02:18:32.173Z,12.41
2023-09-08T02:21:24.976Z,12.36
2023-09-08T02:24:20.048Z,12.29
2023-09-08T02:27:12.757Z,12.19
2023-09-08T02:30:07.759Z,12.16
2023-09-08T02:33:00.537Z,12.13
2023-09-08T02:35:54.251Z,12.11
2023-09-08T02:38:47.032Z,12.08
2023-09-08T02:41:42.539Z,12.07
2023-09-08T02:44:36.052Z,12.05
2023-09-08T02:47:30.004Z,12.03
2023-09-08T02:50:23.324Z,12.01
2023-09-08T02:53:16.090Z,11.99
2023-09-08T02:56:10.550Z,11.97
2023-09-08T02:59:03.238Z,11.95
2023-09-08T03:01:56.037Z,11.93
2023-09-08T03:04:49.604Z,11.91
2023-09-08T03:07:42.341Z,11.88
2023-09-08T03:10:37.583Z,11.85
2023-09-08T03:13:13.532Z,11.83
2023-09-08T03:16:10.625Z,11.79
2023-09-08T03:19:03.560Z,11.76
2023-09-08T03:21:56.322Z,11.74
2023-09-08T03:24:42.706Z,11.71
2023-09-08T03:27:34.033Z,11.69
2023-09-08T03:30:29.850Z,11.66
2023-09-08T03:33:22.750Z,11.64
2023-09-08T03:36:16.634Z,11.61
2023-09-08T03:39:11.007Z,11.57
2023-09-08T03:42:03.994Z,11.55
2023-09-08T03:44:56.745Z,11.52
2023-09-08T03:47:49.494Z,11.50
2023-09-08T03:50:43.369Z,11.49
2023-09-08T03:53:36.923Z,11.47
2023-09-08T03:56:22.812Z,11.47
2023-09-08T03:59:16.180Z,11.49
2023-09-08T04:02:09.012Z,11.50
2023-09-08T04:05:02.293Z,11.52
2023-09-08T04:07:55.332Z,11.54
2023-09-08T04:10:48.471Z,11.55
2023-09-08T04:13:41.152Z,11.58
2023-09-08T04:16:34.828Z,11.62
2023-09-08T04:19:28.044Z,11.67
2023-09-08T04:22:21.584Z,11.72
2023-09-08T04:25:15.548Z,11.81
2023-09-08T04:28:10.001Z,11.90
2023-09-08T04:31:03.411Z,12.00
2023-09-08T04:33:57.584Z,12.11
2023-09-08T04:36:50.220Z,12.23
2023-09-08T04:39:43.242Z,12.35
2023-09-08T04:42:36.239Z,12.49
2023-09-08T04:45:29.351Z,12.64
2023-09-08T04:48:15.442Z,12.79
2023-09-08T04:51:08.809Z,12.96
2023-09-08T04:54:01.440Z,13.12
2023-09-08T04:56:57.031Z,13.27
2023-09-08T04:59:56.983Z,13.44
2023-09-08T05:02:50.175Z,13.60
2023-09-08T05:05:35.825Z,13.76
2023-09-08T05:08:28.573Z,13.90
2023-09-08T05:11:21.461Z,14.03
2023-09-08T05:14:14.610Z,14.18
2023-09-08T05:17:07.757Z,14.35
2023-09-08T05:19:56.309Z,14.49
2023-09-08T05:22:49.047Z,14.61
2023-09-08T05:25:43.980Z,14.73
2023-09-08T05:28:39.404Z,14.85
2023-09-08T05:31:34.209Z,14.98
2023-09-08T05:34:26.932Z,15.13
2023-09-08T05:37:19.699Z,15.26
2023-09-08T05:40:13.498Z,15.38
2023-09-08T05:43:07.827Z,15.47
2023-09-08T05:46:00.689Z,15.54
2023-09-08T05:48:53.555Z,15.62
2023-09-08T05:51:46.507Z,15.71
2023-09-08T05:54:40.110Z,15.77
2023-09-08T05:57:32.831Z,15.84
2023-09-08T06:00:25.614Z,15.90
2023-09-08T06:03:18.401Z,15.99
2023-09-08T06:06:12.542Z,16.09
2023-09-08T06:09:09.099Z,16.23
2023-09-08T06:11:55.196Z,16.42
2023-09-08T06:14:48.395Z,16.60
2023-09-08T06:17:35.560Z,16.79
2023-09-08T06:20:29.263Z,16.98
2023-09-08T06:23:25.838Z,17.13
2023-09-08T06:26:18.176Z,17.30
2023-09-08T06:29:11.180Z,17.46
2023-09-08T06:32:04.040Z,17.63
2023-09-08T06:34:56.786Z,17.79
2023-09-08T06:37:49.588Z,17.93
2023-09-08T06:40:42.674Z,18.01
2023-09-08T06:43:35.253Z,18.13
2023-09-08T06:46:28.226Z,18.25
2023-09-08T06:49:21.375Z,18.37
2023-09-08T06:52:14.482Z,18.51
2023-09-08T06:55:08.139Z,18.63
2023-09-08T06:58:00.867Z,18.75
2023-09-08T07:00:55.786Z,18.84
2023-09-08T07:03:49.149Z,19.01
2023-09-08T07:06:43.076Z,19.21
2023-09-08T07:09:36.846Z,19.37
2023-09-08T07:12:29.669Z,19.56
2023-09-08T07:15:22.262Z,19.78
2023-09-08T07:18:15.333Z,19.96
2023-09-08T07:21:08.370Z,20.14
2023-09-08T07:24:01.792Z,20.33
2023-09-08T07:26:56.431Z,20.44
2023-09-08T07:29:50.795Z,20.58
2023-09-08T07:32:44.032Z,20.69
2023-09-08T07:35:38.507Z,20.83
2023-09-08T07:38:31.433Z,20.97
2023-09-08T07:41:24.822Z,21.06
2023-09-08T07:44:17.752Z,21.11
2023-09-08T07:46:59.631Z,21.21
2023-09-08T07:49:52.412Z,21.31
2023-09-08T07:52:35.328Z,21.41
2023-09-08T07:55:30.067Z,21.50
2023-09-08T07:58:23.954Z,21.65
2023-09-08T08:01:17.308Z,21.85
2023-09-08T08:04:10.604Z,22.01
2023-09-08T08:07:03.514Z,22.13
2023-09-08T08:09:56.578Z,22.23
2023-09-08T08:12:49.463Z,22.34
2023-09-08T08:15:23.638Z,22.46
2023-09-08T08:18:16.808Z,22.62
2023-09-08T08:21:09.480Z,22.71
2023-09-08T08:24:01.303Z,22.83
2023-09-08T08:26:54.292Z,22.96
2023-09-08T08:29:46.909Z,23.09
2023-09-08T08:32:39.432Z,23.23
2023-09-08T08:35:25.736Z,23.38
2023-09-08T08:38:18.500Z,23.49
2023-09-08T08:41:11.275Z,23.62
2023-09-08T08:44:04.446Z,23.70
2023-09-08T08:46:58.160Z,23.78
2023-09-08T08:49:50.833Z,23.81
2023-09-08T08:52:43.130Z,23.83
2023-09-08T08:55:36.682Z,23.82
2023-09-08T08:58:30.233Z,23.87
2023-09-08T09:01:23.439Z,23.99
2023-09-08T09:04:16.865Z,24.11
2023-09-08T09:07:10.313Z,24.24
2023-09-08T09:10:01.817Z,24.36
2023-09-08T09:12:54.844Z,24.44
2023-09-08T09:15:48.254Z,24.53
2023-09-08T09:18:59.878Z,24.61
2023-09-08T09:21:52.608Z,24.71
2023-09-08T09:24:46.497Z,24.81
2023-09-08T09:27:38.991Z,24.93
2023-09-08T09:30:25.883Z,25.06
2023-09-08T09:33:09.356Z,25.24
2023-09-08T09:36:02.174Z,25.42
2023-09-08T09:39:00.157Z,25.57
2023-09-08T09:41:55.732Z,25.73
2023-09-08T09:44:49.139Z,25.84
2023-09-08T09:47:40.887Z,25.95
2023-09-08T09:50:35.534Z,25.96
2023-09-08T09:53:27.682Z,25.87
2023-09-08T09:56:22.849Z,25.82
2023-09-08T09:59:16.898Z,25.86
2023-09-08T10:02:14.835Z,25.93
2023-09-08T10:05:16.547Z,25.94
2023-09-08T10:08:11.668Z,25.97
2023-09-08T10:11:02.367Z,26.07
2023-09-08T10:13:49.194Z,26.15
2023-09-08T10:16:45.601Z,26.18
2023-09-08T10:19:44.245Z,26.25
2023-09-08T11:20:32.614Z,26.96
2023-09-08T11:23:06.407Z,27.10
2023-09-08T11:25:39.355Z,27.14
2023-09-08T11:28:24.135Z,27.18
2023-09-08T11:30:58.549Z,27.19
2023-09-08T11:33:42.598Z,27.14
2023-09-08T11:36:20.035Z,27.08
2023-09-08T11:38:52.799Z,27.05
2023-09-08T11:41:30.426Z,27.06
2023-09-08T11:44:08.728Z,27.12
2023-09-08T11:46:42.879Z,27.18
2023-09-08T11:49:24.159Z,27.25
2023-09-08T11:51:58.470Z,27.31
2023-09-08T11:54:51.962Z,27.39
2023-09-08T11:57:38.307Z,27.51
2023-09-08T12:00:17.181Z,27.53
2023-09-08T12:02:52.687Z,27.56
2023-09-08T12:05:52.863Z,27.55
2023-09-08T12:08:30.509Z,27.52
2023-09-08T12:11:03.260Z,27.51
2023-09-08T12:13:38.558Z,27.53
2023-09-08T12:16:23.537Z,27.55
2023-09-08T12:18:56.369Z,27.55
2023-09-08T12:21:29.040Z,27.50
2023-09-08T12:24:04.777Z,27.49
2023-09-08T12:26:40.039Z,27.51
2023-09-08T12:29:17.756Z,27.48
2023-09-08T12:31:50.157Z,27.40
2023-09-08T12:34:25.302Z,27.37
2023-09-08T12:37:00.688Z,27.43
2023-09-08T12:39:33.207Z,27.55
2023-09-08T12:42:08.764Z,27.66
2023-09-08T12:44:42.893Z,27.74
2023-09-08T12:47:15.802Z,27.79
2023-09-08T12:49:51.537Z,27.78
2023-09-08T12:52:27.259Z,27.80
2023-09-08T12:55:00.817Z,27.85
2023-09-08T12:57:33.318Z,27.89
2023-09-08T13:00:08.604Z,27.87
2023-09-08T13:02:42.779Z,27.88
2023-09-08T13:05:15.573Z,27.91
2023-09-08T13:07:48.365Z,27.89
2023-09-08T13:10:21.385Z,27.82
2023-09-08T13:12:54.307Z,27.79
2023-09-08T13:15:37.586Z,27.86
2023-09-08T13:18:10.424Z,27.94
2023-09-08T13:20:43.022Z,28.00
2023-09-08T13:23:16.006Z,28.07
2023-09-08T13:25:53.045Z,28.14
2023-09-08T13:28:28.097Z,28.11
2023-09-08T13:31:00.985Z,28.04
2023-09-08T13:33:37.384Z,27.94
2023-09-08T13:36:12.218Z,27.83
2023-09-08T13:38:46.647Z,27.77
2023-09-08T13:41:19.592Z,27.79
2023-09-08T13:43:52.261Z,27.81
2023-09-08T13:46:27.980Z,27.86
2023-09-08T13:49:05.027Z,27.90
2023-09-08T13:51:42.552Z,27.99
2023-09-08T13:54:18.199Z,28.03
2023-09-08T13:57:03.357Z,28.03
2023-09-08T13:59:42.456Z,28.02
2023-09-08T14:02:39.784Z,27.99
2023-09-08T14:05:11.215Z,27.92
2023-09-08T14:07:46.746Z,27.88
2023-09-08T14:13:00.085Z,27.95
2023-09-08T14:15:34.599Z,28.01
2023-09-08T14:18:07.859Z,28.04
2023-09-08T14:20:40.440Z,28.05
2023-09-08T14:23:13.063Z,28.03
2023-09-08T14:25:48.149Z,28.07
2023-09-08T14:28:35.051Z,28.10
2023-09-08T14:31:08.451Z,28.13
2023-09-08T14:33:41.394Z,28.10
2023-09-08T14:36:18.830Z,28.04
2023-09-08T14:38:49.788Z,28.01
2023-09-08T14:41:25.276Z,28.01
2023-09-08T14:44:00.744Z,27.95
2023-09-08T14:46:36.276Z,27.92
2023-09-08T14:49:20.169Z,27.91
2023-09-08T14:51:52.866Z,27.93
2023-09-08T14:54:27.563Z,27.93
2023-09-08T14:57:20.321Z,27.96
2023-09-08T14:59:58.315Z,27.99
2023-09-08T15:02:34.489Z,28.00
2023-09-08T15:05:07.884Z,27.99
2023-09-08T15:07:43.246Z,27.98
2023-09-08T15:10:15.859Z,27.91
2023-09-08T15:12:51.406Z,27.84
2023-09-08T15:15:26.949Z,27.79
2023-09-08T15:18:23.796Z,27.76
2023-09-08T15:20:59.160Z,27.76
2023-09-08T15:23:35.376Z,27.72
2023-09-08T15:26:22.395Z,27.72
2023-09-08T15:29:16.433Z,27.71
2023-09-08T15:31:59.720Z,27.72
2023-09-08T15:34:44.510Z,27.71
2023-09-08T15:37:30.399Z,27.69
2023-09-08T15:40:15.640Z,27.63
2023-09-08T15:42:50.263Z,27.53
2023-09-08T15:45:34.491Z,27.37
2023-09-08T15:48:09.962Z,27.21
2023-09-08T15:50:42.617Z,27.05
2023-09-08T15:53:18.225Z,26.90
2023-09-08T15:55:50.957Z,26.81
2023-09-08T15:58:27.550Z,26.73
2023-09-08T16:01:10.486Z,26.65
2023-09-08T16:03:46.543Z,26.59
2023-09-08T16:06:25.699Z,26.51
2023-09-08T16:08:58.137Z,26.42
2023-09-08T16:11:41.144Z,26.31
2023-09-08T16:14:16.262Z,26.18
2023-09-08T16:16:48.903Z,26.03
2023-09-08T16:19:24.784Z,25.88
2023-09-08T16:22:09.092Z,25.74
2023-09-08T16:24:51.890Z,25.66
2023-09-08T16:27:35.023Z,25.54
2023-09-08T16:30:18.181Z,25.37
2023-09-08T16:33:11.118Z,25.13
2023-09-08T16:36:06.262Z,24.86
2023-09-08T16:38:41.295Z,24.62
2023-09-08T16:41:17.182Z,24.40
2023-09-08T16:43:55.207Z,24.15
2023-09-08T16:46:31.048Z,23.91
2023-09-08T16:49:03.827Z,23.66
2023-09-08T16:51:36.570Z,23.42
2023-09-08T16:54:13.500Z,23.19
2023-09-08T16:56:57.398Z,22.92
2023-09-08T16:59:30.562Z,22.68
2023-09-08T17:02:13.862Z,22.45
2023-09-08T17:04:47.414Z,22.21
2023-09-08T17:07:20.255Z,22.00
2023-09-08T17:09:56.227Z,21.78
2023-09-08T17:12:29.912Z,21.58
2023-09-08T17:15:06.671Z,21.37
2023-09-08T17:17:39.573Z,21.17
2023-09-08T17:20:26.047Z,20.96
2023-09-08T17:23:02.489Z,20.77
2023-09-08T17:25:34.982Z,20.60
2023-09-08T17:28:07.938Z,20.44
2023-09-08T17:30:41.906Z,20.29
2023-09-08T17:33:16.912Z,20.13
2023-09-08T17:35:52.092Z,19.97
2023-09-08T17:38:27.439Z,19.83
2023-09-08T17:41:10.245Z,19.69
2023-09-08T17:43:46.729Z,19.55
2023-09-08T17:46:19.525Z,19.43
2023-09-08T17:48:55.496Z,19.31
2023-09-08T17:51:27.778Z,19.18
2023-09-08T17:54:00.732Z,19.06
2023-09-08T17:56:33.304Z,18.95
2023-09-08T17:59:06.338Z,18.83
2023-09-08T18:01:40.247Z,18.70
2023-09-08T18:04:23.032Z,18.57
2023-09-08T18:06:57.931Z,18.45
2023-09-08T18:09:41.045Z,18.34
2023-09-08T18:12:34.514Z,18.23
2023-09-08T18:15:13.344Z,18.13
2023-09-08T18:17:48.637Z,18.03
2023-09-08T18:20:21.933Z,17.95
2023-09-08T18:22:55.875Z,17.86
2023-09-08T18:25:28.749Z,17.77
2023-09-08T18:28:01.585Z,17.69
2023-09-08T18:30:34.468Z,17.61
2023-09-08T18:33:07.602Z,17.54
2023-09-08T18:35:41.431Z,17.47
2023-09-08T18:38:15.119Z,17.40
2023-09-08T18:40:50.431Z,17.33
2023-09-08T18:43:22.991Z,17.26
2023-09-08T18:45:55.705Z,17.19
2023-09-08T18:48:31.720Z,17.12
2023-09-08T18:51:04.718Z,17.06
2023-09-08T18:53:39.391Z,16.99
2023-09-08T18:56:12.521Z,16.93
2023-09-08T18:58:48.484Z,16.88
2023-09-08T19:01:21.255Z,16.82
2023-09-08T19:03:53.978Z,16.76
2023-09-08T19:06:26.513Z,16.71
2023-09-08T19:08:59.634Z,16.66
2023-09-08T19:11:33.960Z,16.60
2023-09-08T19:14:08.461Z,16.56
2023-09-08T19:16:41.090Z,16.51
2023-09-08T19:19:19.223Z,16.46
2023-09-08T19:21:51.760Z,16.41
2023-09-08T19:24:25.725Z,16.35
2023-09-08T19:26:58.504Z,16.30
2023-09-08T19:29:32.831Z,16.25
2023-09-08T19:32:06.846Z,16.20
2023-09-08T19:34:39.654Z,16.15
2023-09-08T19:37:12.529Z,16.11
2023-09-08T19:39:46.389Z,16.06
2023-09-08T19:42:19.148Z,16.02
2023-09-08T19:44:51.925Z,15.97
2023-09-08T19:47:24.672Z,15.94
2023-09-08T19:49:57.340Z,15.89
2023-09-08T19:52:30.106Z,15.86
2023-09-08T19:55:03.013Z,15.81
2023-09-08T19:57:35.774Z,15.78
2023-09-08T20:00:10.470Z,15.74
2023-09-08T20:02:48.332Z,15.70
2023-09-08T20:05:21.132Z,15.65
2023-09-08T20:07:54.766Z,15.61
2023-09-08T20:10:35.155Z,15.57
2023-09-08T20:13:09.453Z,15.53
2023-09-08T20:15:42.027Z,15.49
2023-09-08T20:18:14.991Z,15.44
2023-09-08T20:20:47.817Z,15.39
2023-09-08T20:23:20.622Z,15.36
2023-09-08T20:25:54.919Z,15.31
2023-09-08T20:28:30.584Z,15.26
2023-09-08T20:33:39.669Z,15.16
2023-09-08T20:36:12.854Z,15.11
2023-09-08T20:38:45.628Z,15.07
2023-09-08T20:41:18.164Z,15.04
2023-09-08T20:43:51.005Z,14.99
2023-09-08T20:46:23.748Z,14.95
2023-09-08T20:48:56.242Z,14.91
2023-09-08T20:51:28.742Z,14.86
2023-09-08T20:54:03.442Z,14.83
2023-09-08T20:56:40.038Z,14.80
2023-09-08T20:59:12.828Z,14.76
2023-09-08T21:01:45.369Z,14.73
2023-09-08T21:04:21.099Z,14.70
2023-09-08T21:06:55.222Z,14.67
2023-09-08T21:09:28.119Z,14.64
2023-09-08T21:12:00.717Z,14.61
2023-09-08T21:14:33.415Z,14.58
2023-09-08T21:17:06.445Z,14.54
2023-09-08T21:19:38.948Z,14.51
2023-09-08T21:22:11.646Z,14.47
2023-09-08T21:24:47.940Z,14.43
2023-09-08T21:27:23.003Z,14.39
2023-09-08T21:30:06.508Z,14.35
2023-09-08T21:32:40.026Z,14.33
2023-09-08T21:35:13.425Z,14.31
2023-09-08T21:37:47.885Z,14.25
2023-09-08T21:40:43.519Z,14.20
2023-09-08T21:43:16.162Z,14.17
2023-09-08T21:46:07.662Z,14.13
2023-09-08T21:48:50.753Z,14.10
2023-09-08T21:51:47.399Z,14.05
2023-09-08T21:54:40.352Z,14.00
2023-09-08T21:57:33.417Z,13.95
2023-09-08T22:00:22.479Z,13.93
2023-09-08T22:03:01.074Z,13.93
2023-09-08T22:05:34.592Z,13.93
2023-09-08T22:08:11.155Z,13.92
2023-09-08T22:11:08.295Z,13.90
2023-09-08T22:13:45.090Z,13.88
2023-09-08T22:16:21.136Z,13.85
2023-09-08T22:19:15.306Z,13.83
2023-09-08T22:22:09.041Z,13.80
2023-09-08T22:24:45.644Z,13.78
2023-09-08T22:27:23.957Z,13.77
2023-09-08T22:30:17.598Z,13.75
2023-09-08T22:33:11.870Z,13.74
2023-09-08T22:35:55.436Z,13.73
2023-09-08T22:38:32.051Z,13.72
2023-09-08T22:41:08.490Z,13.68
2023-09-08T22:43:44.397Z,13.64
2023-09-08T22:46:37.477Z,13.61
2023-09-08T22:49:14.051Z,13.58
2023-09-08T22:52:07.987Z,13.56
2023-09-08T22:55:13.008Z,13.54
2023-09-08T22:58:16.061Z,13.50
2023-09-08T23:00:49.019Z,13.49
2023-09-08T23:03:21.971Z,13.46
2023-09-08T23:06:05.819Z,13.44
2023-09-08T23:08:49.588Z,13.42
2023-09-08T23:11:31.786Z,13.39
2023-09-08T23:14:27.557Z,13.37
2023-09-08T23:17:11.137Z,13.35
2023-09-08T23:19:43.474Z,13.33
2023-09-08T23:22:19.544Z,13.31
2023-09-08T23:24:52.412Z,13.29
2023-09-08T23:27:28.261Z,13.27
2023-09-08T23:30:05.080Z,13.26
2023-09-08T23:32:58.153Z,13.23
2023-09-08T23:35:31.627Z,13.21
2023-09-08T23:38:06.962Z,13.18
2023-09-08T23:40:41.076Z,13.16
2023-09-08T23:43:24.999Z,13.14
2023-09-08T23:46:01.078Z,13.12
2023-09-08T23:48:44.814Z,13.09
2023-09-08T23:51:19.603Z,13.05
2023-09-08T23:54:12.500Z,13.03
2023-09-08T23:56:47.263Z,13.02
2023-09-08T23:59:20.670Z,13.01
